Terminal Aerodrome Forecast
Issued by NWS

Home | Current Version | Previous Version | Text Only | Print | Product List | Glossary On
Versions: 1 2 3 4 5 6 7 8 9 10 11 12 13 14 15
296
FTUS46 KSEW 052107 AAA
TAFOLM
TAF AMD
KOLM 052107Z 0521/0618 20006KT P6SM VCSH SCT005 BKN015 OVC025
      TEMPO 0521/0601 -SHRA BKN005 OVC015
     FM060300 VRB03KT P6SM SCT025 BKN050
     FM060600 00000KT 1/2SM FG OVC002=

USA.gov is the U.S. government's official web portal to all federal, state and local government web resources and services.